createdAt,value
2019-02-28T00:00:06.518Z,0
2019-02-28T00:03:43.715Z,0
2019-02-28T00:06:06.369Z,0
2019-02-28T00:07:04.988Z,0
2019-02-28T00:08:03.643Z,0
2019-02-28T00:09:02.216Z,0
2019-02-28T00:10:00.860Z,0
2019-02-28T00:11:01.965Z,0
2019-02-28T00:11:58.184Z,0
2019-02-28T00:12:56.725Z,0
2019-02-28T00:15:19.721Z,0
2019-02-28T00:16:18.257Z,0
2019-02-28T00:18:41.009Z,0
2019-02-28T00:19:39.653Z,0
2019-02-28T00:20:38.170Z,0
2019-02-28T00:21:37.307Z,0
2019-02-28T00:22:35.432Z,0
2019-02-28T00:23:34.017Z,0
2019-02-28T00:24:32.515Z,0
2019-02-28T00:25:31.300Z,0
2019-02-28T00:26:30.624Z,0
2019-02-28T00:28:52.798Z,0
2019-02-28T00:29:51.433Z,0
2019-02-28T00:30:49.937Z,0
2019-02-28T00:31:49.853Z,0
2019-02-28T00:32:47.323Z,0
2019-02-28T00:33:45.869Z,0
2019-02-28T00:34:44.556Z,0
2019-02-28T00:35:44.641Z,0
2019-02-28T00:36:41.959Z,0
2019-02-28T00:37:40.522Z,0
2019-02-28T00:38:39.125Z,0
2019-02-28T00:39:37.672Z,0
2019-02-28T00:40:38.451Z,0
2019-02-28T00:41:34.894Z,0
2019-02-28T00:42:33.567Z,0
2019-02-28T00:43:32.115Z,0
2019-02-28T00:44:31.415Z,0
2019-02-28T00:45:29.527Z,0
2019-02-28T00:46:28.093Z,0
2019-02-28T00:47:26.594Z,0
2019-02-28T00:48:25.170Z,0
2019-02-28T00:49:24.431Z,0
2019-02-28T00:50:22.489Z,0
2019-02-28T00:51:21.220Z,0
2019-02-28T00:52:19.797Z,0
2019-02-28T00:53:18.421Z,0
2019-02-28T00:54:17.150Z,0
2019-02-28T00:55:15.762Z,0
2019-02-28T00:56:17.499Z,0
2019-02-28T00:57:12.919Z,0
2019-02-28T00:58:11.588Z,0
2019-02-28T00:59:10.174Z,0
2019-02-28T01:00:09.032Z,0
2019-02-28T01:01:08.318Z,0
2019-02-28T01:02:06.256Z,0
2019-02-28T01:03:04.865Z,0
2019-02-28T01:04:03.387Z,0
2019-02-28T01:05:04.792Z,0
2019-02-28T01:06:00.536Z,0
2019-02-28T01:06:59.905Z,0
2019-02-28T01:07:58.506Z,0
2019-02-28T01:08:57.141Z,0
2019-02-28T01:09:55.697Z,0
2019-02-28T01:10:54.249Z,0
2019-02-28T01:11:52.863Z,0
2019-02-28T01:12:54.281Z,0
2019-02-28T01:13:50.070Z,0
2019-02-28T01:14:48.656Z,0
2019-02-28T01:15:47.362Z,0
2019-02-28T01:16:45.867Z,0
2019-02-28T01:17:44.451Z,0
2019-02-28T01:18:43.158Z,0
2019-02-28T01:19:42.348Z,0
2019-02-28T01:20:40.226Z,0
2019-02-28T01:21:38.760Z,0
2019-02-28T01:22:37.316Z,0
2019-02-28T01:23:35.885Z,0
2019-02-28T01:24:35.376Z,0
2019-02-28T01:25:33.394Z,0
2019-02-28T01:26:31.936Z,0
2019-02-28T01:27:30.482Z,0
2019-02-28T01:28:29.187Z,0
2019-02-28T01:29:27.766Z,0
2019-02-28T01:30:26.307Z,0
2019-02-28T01:31:24.872Z,0
2019-02-28T01:32:23.516Z,0
2019-02-28T01:35:06.720Z,0
2019-02-28T01:36:02.396Z,0
2019-02-28T01:37:01.109Z,0
2019-02-28T01:37:59.665Z,0
2019-02-28T01:38:58.815Z,0
2019-02-28T01:39:56.785Z,0
2019-02-28T01:40:55.402Z,0
2019-02-28T01:41:53.962Z,0
2019-02-28T01:42:54.802Z,0
2019-02-28T01:43:51.206Z,0
2019-02-28T01:44:49.774Z,0
2019-02-28T01:45:48.342Z,0
2019-02-28T01:46:48.434Z,0
2019-02-28T01:47:45.546Z,0
2019-02-28T01:48:44.133Z,0
2019-02-28T01:49:42.719Z,0
2019-02-28T01:50:41.517Z,0
2019-02-28T01:53:21.946Z,0
2019-02-28T01:56:05.310Z,0
2019-02-28T01:57:03.906Z,0
2019-02-28T01:58:02.468Z,0
2019-02-28T02:04:01.986Z,0
2019-02-28T02:05:00.572Z,0
2019-02-28T02:05:59.200Z,0
2019-02-28T02:06:59.783Z,0
2019-02-28T02:07:56.316Z,0
2019-02-28T02:10:38.148Z,0
2019-02-28T02:11:36.752Z,0
2019-02-28T02:12:35.344Z,0
2019-02-28T02:13:36.595Z,0
2019-02-28T02:14:32.564Z,0
2019-02-28T02:15:31.227Z,0
2019-02-28T02:16:29.792Z,0
2019-02-28T02:17:28.403Z,0
2019-02-28T02:18:26.932Z,0
2019-02-28T02:19:25.647Z,0
2019-02-28T02:20:26.219Z,0
2019-02-28T02:21:22.845Z,0
2019-02-28T02:24:07.193Z,0
2019-02-28T02:25:05.710Z,0
2019-02-28T02:28:52.946Z,0
2019-02-28T02:29:51.830Z,0
2019-02-28T02:32:38.578Z,0
2019-02-28T02:35:09.278Z,0
2019-02-28T02:36:07.836Z,0
2019-02-28T02:37:06.430Z,0
2019-02-28T02:38:05.346Z,0
2019-02-28T02:39:03.885Z,0
2019-02-28T02:43:08.827Z,0
2019-02-28T02:44:07.395Z,0
2019-02-28T02:45:06.655Z,0
2019-02-28T02:46:04.551Z,0
2019-02-28T02:47:03.220Z,0
2019-02-28T02:48:05.141Z,0
2019-02-28T02:49:00.361Z,0
2019-02-28T02:49:59.012Z,0
2019-02-28T02:50:57.582Z,0
2019-02-28T02:51:56.153Z,0
2019-02-28T02:52:54.725Z,0
2019-02-28T02:53:53.482Z,0
2019-02-28T02:54:52.940Z,0
2019-02-28T02:55:50.579Z,0
2019-02-28T02:56:49.158Z,0
2019-02-28T02:57:51.634Z,0
2019-02-28T02:58:46.328Z,0
2019-02-28T02:59:44.891Z,0
2019-02-28T03:00:49.259Z,0
2019-02-28T03:01:41.984Z,0
2019-02-28T03:02:40.602Z,0
2019-02-28T03:03:42.610Z,0
2019-02-28T03:04:37.842Z,0
2019-02-28T03:05:36.791Z,0
2019-02-28T03:06:35.089Z,0
2019-02-28T03:07:33.655Z,0
2019-02-28T03:08:36.229Z,0
2019-02-28T03:09:30.831Z,0
2019-02-28T03:10:29.400Z,0
2019-02-28T03:11:27.952Z,0
2019-02-28T03:12:31.013Z,0
2019-02-28T03:13:25.387Z,0
2019-02-28T03:14:23.986Z,0
2019-02-28T03:15:26.794Z,0
2019-02-28T03:16:21.444Z,0
2019-02-28T03:17:20.016Z,0
2019-02-28T03:18:20.368Z,0
2019-02-28T03:19:17.155Z,0
2019-02-28T03:20:15.723Z,0
2019-02-28T03:21:15.480Z,0
2019-02-28T03:22:13.160Z,0
2019-02-28T03:23:11.807Z,0
2019-02-28T03:24:14.546Z,0
2019-02-28T03:25:09.013Z,0
2019-02-28T03:26:07.668Z,0
2019-02-28T03:27:06.229Z,0
2019-02-28T03:28:04.931Z,0
2019-02-28T03:29:07.476Z,0
2019-02-28T03:30:02.169Z,0
2019-02-28T03:31:11.473Z,0
2019-02-28T03:31:59.916Z,0
2019-02-28T03:32:58.070Z,0
2019-02-28T03:34:10.001Z,0
2019-02-28T03:34:58.411Z,0
2019-02-28T03:35:53.815Z,0
2019-02-28T03:36:56.855Z,0
2019-02-28T03:37:51.273Z,0
2019-02-28T03:38:50.090Z,0
2019-02-28T03:39:48.424Z,0
2019-02-28T03:40:47.003Z,0
2019-02-28T03:41:49.004Z,0
2019-02-28T03:42:44.214Z,0
2019-02-28T03:43:44.106Z,0
2019-02-28T03:44:41.468Z,0
2019-02-28T03:45:40.014Z,0
2019-02-28T03:46:38.577Z,0
2019-02-28T03:47:37.900Z,0
2019-02-28T03:48:36.284Z,0
2019-02-28T03:49:34.265Z,0
2019-02-28T03:50:33.013Z,0
2019-02-28T03:51:31.598Z,0
2019-02-28T03:52:30.154Z,0
2019-02-28T03:53:28.753Z,0
2019-02-28T03:54:28.742Z,0
2019-02-28T03:55:26.110Z,0
2019-02-28T03:56:24.701Z,0
2019-02-28T03:57:27.709Z,0
2019-02-28T03:58:21.805Z,0
2019-02-28T03:59:20.363Z,0
2019-02-28T04:00:18.962Z,0
2019-02-28T04:01:18.443Z,0
2019-02-28T04:02:22.104Z,0
2019-02-28T04:03:15.846Z,0
2019-02-28T04:04:14.367Z,0
2019-02-28T04:05:13.070Z,0
2019-02-28T04:06:11.664Z,0
2019-02-28T04:07:15.344Z,0
2019-02-28T04:08:08.762Z,0
2019-02-28T04:09:08.315Z,0
2019-02-28T04:10:05.907Z,0
2019-02-28T04:11:04.625Z,0
2019-02-28T04:12:06.961Z,0
2019-02-28T04:13:01.851Z,0
2019-02-28T04:14:00.407Z,0
2019-02-28T04:14:59.137Z,0
2019-02-28T04:16:08.238Z,0
2019-02-28T04:16:56.354Z,0
2019-02-28T04:17:54.904Z,0
2019-02-28T04:18:53.468Z,0
2019-02-28T04:19:58.566Z,0
2019-02-28T04:20:51.437Z,0
2019-02-28T04:21:49.987Z,0
2019-02-28T04:22:48.529Z,0
2019-02-28T04:23:47.093Z,0
2019-02-28T04:24:47.402Z,0
2019-02-28T04:25:44.230Z,0
2019-02-28T04:26:42.831Z,0
2019-02-28T04:29:41.082Z,0
2019-02-28T04:30:43.672Z,0
2019-02-28T04:31:38.231Z,0
2019-02-28T04:32:36.917Z,0
2019-02-28T04:33:38.820Z,0
2019-02-28T04:34:34.161Z,0
2019-02-28T04:35:32.811Z,0
2019-02-28T04:36:35.389Z,0
2019-02-28T04:37:29.877Z,0
2019-02-28T04:38:28.434Z,0
2019-02-28T04:39:27.102Z,0
2019-02-28T04:40:26.884Z,0
2019-02-28T04:41:24.237Z,0
2019-02-28T04:42:22.814Z,0
2019-02-28T04:43:21.427Z,0
2019-02-28T04:44:19.938Z,0
2019-02-28T04:45:18.665Z,0
2019-02-28T04:46:17.241Z,0
2019-02-28T04:47:15.817Z,0
2019-02-28T04:48:14.686Z,0
2019-02-28T04:49:13.037Z,0
2019-02-28T04:50:11.695Z,0
2019-02-28T04:51:10.253Z,0
2019-02-28T04:52:11.714Z,0
2019-02-28T04:53:07.472Z,0
2019-02-28T04:54:06.108Z,0
2019-02-28T04:55:04.764Z,0
2019-02-28T04:56:03.444Z,0
2019-02-28T04:57:02.009Z,0
2019-02-28T04:58:01.472Z,0
2019-02-28T04:59:00.355Z,0
2019-02-28T04:59:58.603Z,0
2019-02-28T05:00:57.540Z,0
2019-02-28T05:01:56.172Z,0
2019-02-28T05:02:55.070Z,0
2019-02-28T05:03:53.352Z,0
2019-02-28T05:04:51.890Z,0
2019-02-28T05:05:50.460Z,0
2019-02-28T05:06:52.116Z,0
2019-02-28T05:07:47.859Z,0
2019-02-28T05:08:46.433Z,0
2019-02-28T05:09:47.861Z,0
2019-02-28T05:10:43.695Z,0
2019-02-28T05:11:42.278Z,0
2019-02-28T05:12:41.136Z,0
2019-02-28T05:13:41.128Z,0
2019-02-28T05:14:38.025Z,0
2019-02-28T05:15:38.192Z,0
2019-02-28T05:16:35.383Z,0
2019-02-28T05:17:33.914Z,0
2019-02-28T05:18:32.465Z,0
2019-02-28T05:19:32.253Z,0
2019-02-28T05:20:29.868Z,0
2019-02-28T05:21:28.413Z,0
2019-02-28T05:22:27.537Z,0
2019-02-28T05:23:25.583Z,0
2019-02-28T05:24:24.141Z,0
2019-02-28T05:25:22.831Z,0
2019-02-28T05:26:23.402Z,0
2019-02-28T05:27:20.928Z,0
2019-02-28T05:28:19.497Z,0
2019-02-28T05:30:59.853Z,0
2019-02-28T05:33:42.896Z,0
2019-02-28T05:34:40.632Z,0
2019-02-28T05:37:23.214Z,0
2019-02-28T05:38:22.540Z,0
2019-02-28T05:39:20.369Z,0
2019-02-28T05:40:19.099Z,0
2019-02-28T05:41:17.821Z,0
2019-02-28T05:42:16.378Z,0
2019-02-28T05:43:15.304Z,0
2019-02-28T05:44:13.939Z,0
2019-02-28T05:45:14.537Z,0
2019-02-28T05:46:11.554Z,0
2019-02-28T05:47:10.155Z,0
2019-02-28T05:48:08.772Z,0
2019-02-28T05:49:08.618Z,0
2019-02-28T05:50:05.913Z,0
2019-02-28T05:51:04.444Z,0
2019-02-28T05:52:03.163Z,0
2019-02-28T05:53:03.010Z,0
2019-02-28T05:54:01.076Z,0
2019-02-28T05:54:59.648Z,0
2019-02-28T05:55:59.655Z,0
2019-02-28T05:56:56.970Z,0
2019-02-28T05:57:55.512Z,0
2019-02-28T05:58:54.059Z,0
2019-02-28T05:59:52.669Z,0
2019-02-28T06:00:51.470Z,0
2019-02-28T06:01:50.032Z,0
2019-02-28T06:02:48.603Z,0
2019-02-28T06:03:47.118Z,0
2019-02-28T06:04:45.733Z,0
2019-02-28T06:05:46.311Z,0
2019-02-28T06:06:42.915Z,0
2019-02-28T06:07:41.686Z,0
2019-02-28T06:08:40.239Z,5
2019-02-28T06:09:39.070Z,5
2019-02-28T06:10:37.603Z,5
2019-02-28T06:11:36.149Z,5
2019-02-28T06:12:34.742Z,5
2019-02-28T06:13:33.280Z,5
2019-02-28T06:14:31.841Z,5
2019-02-28T06:15:30.425Z,5
2019-02-28T06:16:29.141Z,10
2019-02-28T06:17:27.689Z,10
2019-02-28T06:18:31.938Z,10
2019-02-28T06:19:24.974Z,10
2019-02-28T06:20:23.635Z,10
2019-02-28T06:21:23.333Z,10
2019-02-28T06:22:20.864Z,15
2019-02-28T06:23:19.403Z,15
2019-02-28T06:24:18.131Z,15
2019-02-28T06:25:23.531Z,15
2019-02-28T06:26:15.762Z,15
2019-02-28T06:27:14.360Z,15
2019-02-28T06:28:12.915Z,20
2019-02-28T06:29:11.474Z,20
2019-02-28T06:30:09.996Z,20
2019-02-28T06:31:08.557Z,20
2019-02-28T06:32:07.109Z,20
2019-02-28T06:33:05.694Z,25
2019-02-28T06:34:05.518Z,25
2019-02-28T06:35:02.959Z,25
2019-02-28T06:37:43.519Z,30
2019-02-28T06:38:42.139Z,30
2019-02-28T06:39:40.808Z,30
2019-02-28T06:40:39.467Z,30
2019-02-28T06:41:39.825Z,35
2019-02-28T06:42:36.794Z,35
2019-02-28T06:43:35.581Z,40
2019-02-28T06:44:34.134Z,40
2019-02-28T06:45:36.370Z,40
2019-02-28T06:46:31.671Z,40
2019-02-28T06:47:30.215Z,45
2019-02-28T06:49:52.985Z,45
2019-02-28T06:50:51.568Z,50
2019-02-28T06:51:51.302Z,50
2019-02-28T06:52:49.299Z,50
2019-02-28T06:53:47.875Z,50
2019-02-28T06:54:46.463Z,50
2019-02-28T06:55:46.400Z,50
2019-02-28T06:56:43.756Z,55
2019-02-28T06:57:42.359Z,55
2019-02-28T06:58:41.086Z,55
2019-02-28T06:59:39.815Z,55
2019-02-28T07:00:38.359Z,55
2019-02-28T07:01:37.020Z,60
2019-02-28T07:02:35.545Z,60
2019-02-28T07:03:35.091Z,60
2019-02-28T07:04:32.811Z,60
2019-02-28T07:05:31.421Z,60
2019-02-28T07:06:35.599Z,65
2019-02-28T07:07:29.994Z,65
2019-02-28T07:08:29.064Z,60
2019-02-28T07:09:27.421Z,65
2019-02-28T07:10:25.978Z,65
2019-02-28T07:11:25.015Z,65
2019-02-28T07:12:29.091Z,65
2019-02-28T07:13:22.301Z,65
2019-02-28T07:14:20.909Z,70
2019-02-28T07:15:23.225Z,70
2019-02-28T07:16:18.258Z,70
2019-02-28T07:17:17.200Z,70
2019-02-28T07:18:18.800Z,70
2019-02-28T07:19:14.508Z,75
2019-02-28T07:20:13.280Z,75
2019-02-28T07:21:11.847Z,75
2019-02-28T07:22:10.493Z,75
2019-02-28T07:23:09.165Z,75
2019-02-28T07:24:07.742Z,75
2019-02-28T07:25:09.383Z,80
2019-02-28T07:26:04.991Z,80
2019-02-28T07:27:04.241Z,80
2019-02-28T07:28:02.515Z,80
2019-02-28T07:29:01.288Z,80
2019-02-28T07:29:59.928Z,80
2019-02-28T07:30:58.580Z,80
2019-02-28T07:32:01.127Z,80
2019-02-28T07:32:55.703Z,80
2019-02-28T07:33:54.340Z,80
2019-02-28T07:34:54.956Z,85
2019-02-28T07:35:51.763Z,85
2019-02-28T07:36:50.386Z,85
2019-02-28T07:37:53.137Z,85
2019-02-28T07:38:47.696Z,85
2019-02-28T07:39:46.268Z,85
2019-02-28T07:40:45.691Z,85
2019-02-28T07:41:43.382Z,85
2019-02-28T07:42:42.639Z,85
2019-02-28T07:43:45.722Z,85
2019-02-28T07:44:39.918Z,85
2019-02-28T07:45:38.507Z,85
2019-02-28T07:46:38.488Z,90
2019-02-28T07:47:35.709Z,90
2019-02-28T07:48:34.313Z,90
2019-02-28T07:49:36.644Z,90
2019-02-28T07:50:32.033Z,90
2019-02-28T07:51:30.608Z,90
2019-02-28T07:52:33.346Z,90
2019-02-28T07:53:28.139Z,90
2019-02-28T07:54:26.663Z,90
2019-02-28T07:55:27.118Z,90
2019-02-28T07:56:24.090Z,90
2019-02-28T07:57:22.611Z,90
2019-02-28T07:58:21.147Z,90
2019-02-28T07:59:19.655Z,90
2019-02-28T08:00:18.699Z,90
2019-02-28T08:01:18.394Z,90
2019-02-28T08:02:15.530Z,95
2019-02-28T08:03:14.072Z,95
2019-02-28T08:04:12.645Z,95
2019-02-28T08:05:11.324Z,95
2019-02-28T08:06:09.890Z,95
2019-02-28T08:07:11.381Z,95
2019-02-28T08:08:07.243Z,95
2019-02-28T08:09:05.861Z,95
2019-02-28T08:10:04.429Z,95
2019-02-28T08:11:03.069Z,95
2019-02-28T08:12:01.772Z,95
2019-02-28T08:13:03.013Z,95
2019-02-28T08:13:59.194Z,95
2019-02-28T08:14:57.816Z,95
2019-02-28T08:15:58.353Z,95
2019-02-28T08:16:54.923Z,95
2019-02-28T08:17:53.513Z,90
2019-02-28T08:18:52.418Z,90
2019-02-28T08:19:50.722Z,90
2019-02-28T08:20:49.413Z,90
2019-02-28T08:21:50.323Z,90
2019-02-28T08:22:46.503Z,90
2019-02-28T08:23:45.119Z,90
2019-02-28T08:24:43.801Z,90
2019-02-28T08:25:42.745Z,90
2019-02-28T08:26:41.018Z,90
2019-02-28T08:27:39.616Z,90
2019-02-28T08:28:38.214Z,90
2019-02-28T08:29:36.891Z,90
2019-02-28T08:30:35.669Z,90
2019-02-28T08:31:34.262Z,90
2019-02-28T08:32:33.869Z,90
2019-02-28T08:33:31.569Z,90
2019-02-28T08:34:30.158Z,90
2019-02-28T08:35:33.924Z,90
2019-02-28T08:36:27.650Z,90
2019-02-28T08:37:26.277Z,90
2019-02-28T08:38:24.846Z,90
2019-02-28T08:39:23.375Z,90
2019-02-28T08:40:22.037Z,90
2019-02-28T08:41:22.425Z,90
2019-02-28T08:42:19.255Z,90
2019-02-28T08:43:26.796Z,90
2019-02-28T08:44:22.455Z,90
2019-02-28T08:45:15.124Z,90
2019-02-28T08:46:13.968Z,90
2019-02-28T08:47:12.452Z,90
2019-02-28T08:48:12.584Z,90
2019-02-28T08:49:09.802Z,90
2019-02-28T08:50:08.341Z,95
2019-02-28T08:51:06.901Z,95
2019-02-28T08:52:06.630Z,90
2019-02-28T08:53:04.086Z,90
2019-02-28T08:54:02.796Z,90
2019-02-28T08:55:02.786Z,90
2019-02-28T08:56:00.237Z,90
2019-02-28T08:56:58.893Z,90
2019-02-28T08:58:04.126Z,90
2019-02-28T08:58:56.178Z,95
2019-02-28T08:59:56.105Z,95
2019-02-28T09:00:53.576Z,95
2019-02-28T09:01:52.134Z,95
2019-02-28T09:04:40.917Z,95
2019-02-28T09:06:55.314Z,95
2019-02-28T09:07:54.040Z,95
2019-02-28T09:08:52.651Z,95
2019-02-28T09:09:51.416Z,95
2019-02-28T09:10:50.028Z,95
2019-02-28T09:32:50.484Z,100
2019-02-28T09:33:49.068Z,100
2019-02-28T09:34:47.809Z,100
2019-02-28T09:35:46.601Z,100
2019-02-28T09:36:45.261Z,100
2019-02-28T09:37:44.105Z,100
2019-02-28T09:38:45.223Z,100
2019-02-28T09:39:41.474Z,100
2019-02-28T09:40:41.225Z,100
2019-02-28T09:41:40.136Z,100
2019-02-28T09:42:37.623Z,100
2019-02-28T09:43:36.731Z,100
2019-02-28T09:44:35.426Z,105
2019-02-28T09:45:34.381Z,105
2019-02-28T09:46:33.048Z,105
2019-02-28T09:47:32.554Z,105
2019-02-28T09:48:33.904Z,105
2019-02-28T09:49:30.265Z,105
2019-02-28T09:50:29.380Z,110
2019-02-28T09:51:31.469Z,110
2019-02-28T09:52:27.356Z,110
2019-02-28T09:53:26.551Z,110
2019-02-28T09:54:25.505Z,115
2019-02-28T09:55:23.838Z,115
2019-02-28T09:56:22.474Z,115
2019-02-28T09:57:22.626Z,115
2019-02-28T09:58:19.936Z,120
2019-02-28T09:59:18.876Z,115
2019-02-28T10:00:17.820Z,115
2019-02-28T10:01:16.370Z,115
2019-02-28T10:02:15.174Z,115
2019-02-28T10:03:15.402Z,115
2019-02-28T10:04:13.659Z,115
2019-02-28T10:05:12.315Z,115
2019-02-28T10:06:13.361Z,115
2019-02-28T10:07:11.125Z,110
2019-02-28T10:08:09.862Z,110
2019-02-28T10:09:09.440Z,105
2019-02-28T10:10:07.730Z,110
2019-02-28T10:11:06.800Z,105
2019-02-28T10:12:07.771Z,105
2019-02-28T10:13:05.758Z,105
2019-02-28T10:14:08.144Z,100
2019-02-28T10:15:07.420Z,100
2019-02-28T10:16:04.694Z,100
2019-02-28T10:19:45.817Z,110
2019-02-28T10:20:42.410Z,110
2019-02-28T10:21:41.077Z,110
2019-02-28T10:22:39.818Z,110
2019-02-28T10:23:38.377Z,110
2019-02-28T10:24:37.116Z,110
2019-02-28T10:25:39.957Z,110
2019-02-28T10:47:50.980Z,145
2019-02-28T10:48:50.900Z,150
2019-02-28T10:49:48.436Z,150
2019-02-28T10:50:47.125Z,150
2019-02-28T10:51:49.514Z,155
2019-02-28T10:52:45.138Z,155
2019-02-28T10:53:43.700Z,155
2019-02-28T10:54:42.430Z,155
2019-02-28T10:55:41.044Z,155
2019-02-28T10:56:40.566Z,155
2019-02-28T10:57:40.382Z,150
2019-02-28T10:58:38.044Z,150
2019-02-28T10:59:36.633Z,140
2019-02-28T11:05:23.821Z,135
2019-02-28T11:06:25.228Z,135
2019-02-28T11:09:04.481Z,145
2019-02-28T11:12:02.748Z,160
2019-02-28T11:13:01.417Z,165
2019-02-28T11:14:03.869Z,170
2019-02-28T11:14:59.367Z,170
2019-02-28T11:15:57.943Z,175
2019-02-28T11:16:59.326Z,185
2019-02-28T11:17:55.257Z,180
2019-02-28T11:21:10.813Z,190
2019-02-28T11:22:09.482Z,190
2019-02-28T11:23:08.060Z,195
2019-02-28T11:24:06.782Z,190
2019-02-28T11:28:55.181Z,195
2019-02-28T11:29:53.776Z,185
2019-02-28T11:30:52.300Z,190
2019-02-28T11:31:54.094Z,185
2019-02-28T11:32:49.555Z,175
2019-02-28T11:33:48.068Z,180
2019-02-28T11:34:48.636Z,175
2019-02-28T11:35:45.303Z,175
2019-02-28T11:36:44.795Z,180
2019-02-28T11:37:45.988Z,170
2019-02-28T11:38:41.053Z,165
2019-02-28T11:39:39.791Z,170
2019-02-28T11:40:40.358Z,170
2019-02-28T11:41:36.960Z,175
2019-02-28T11:42:35.495Z,180
2019-02-28T11:43:37.199Z,185
2019-02-28T11:44:33.192Z,180
2019-02-28T11:45:31.887Z,170
2019-02-28T11:46:35.509Z,165
2019-02-28T11:47:30.193Z,165
2019-02-28T11:48:28.815Z,165
2019-02-28T11:49:28.583Z,165
2019-02-28T11:50:26.231Z,165
2019-02-28T11:51:24.896Z,160
2019-02-28T11:52:24.411Z,160
2019-02-28T11:53:22.092Z,150
2019-02-28T11:54:20.800Z,150
2019-02-28T11:55:20.289Z,150
2019-02-28T11:56:18.195Z,135
2019-02-28T11:57:16.806Z,145
2019-02-28T11:58:17.565Z,135
2019-02-28T11:59:14.001Z,140
2019-02-28T12:00:13.456Z,135
2019-02-28T12:01:11.437Z,125
2019-02-28T12:02:10.202Z,120
2019-02-28T12:03:08.495Z,125
2019-02-28T12:04:07.333Z,130
2019-02-28T12:05:06.073Z,130
2019-02-28T12:06:06.739Z,130
2019-02-28T12:07:03.271Z,125
2019-02-28T12:08:01.908Z,115
2019-02-28T12:09:00.588Z,115
2019-02-28T12:09:59.199Z,115
2019-02-28T12:10:58.308Z,120
2019-02-28T12:11:56.459Z,120
2019-02-28T12:12:56.392Z,130
2019-02-28T12:13:55.075Z,130
2019-02-28T12:14:52.652Z,130
2019-02-28T12:15:51.565Z,130
2019-02-28T12:16:53.536Z,130
2019-02-28T12:17:49.828Z,130
2019-02-28T12:18:48.477Z,130
2019-02-28T12:19:47.552Z,125
2019-02-28T12:20:45.687Z,120
2019-02-28T12:21:45.330Z,120
2019-02-28T12:22:49.061Z,115
2019-02-28T12:23:43.811Z,115
2019-02-28T12:24:42.492Z,110
2019-02-28T12:25:42.715Z,110
2019-02-28T12:26:39.702Z,100
2019-02-28T12:27:39.429Z,105
2019-02-28T12:28:39.127Z,105
2019-02-28T12:29:37.092Z,105
2019-02-28T12:30:35.694Z,105
2019-02-28T12:31:35.580Z,105
2019-02-28T12:32:33.127Z,105
2019-02-28T12:33:31.818Z,105
2019-02-28T12:34:30.448Z,105
2019-02-28T12:35:29.048Z,105
2019-02-28T12:36:27.765Z,105
2019-02-28T12:37:26.306Z,100
2019-02-28T12:38:25.569Z,100
2019-02-28T12:39:23.767Z,100
2019-02-28T12:40:22.220Z,100
2019-02-28T12:41:21.552Z,100
2019-02-28T12:42:19.608Z,100
2019-02-28T12:43:18.223Z,105
2019-02-28T12:44:16.748Z,105
2019-02-28T12:45:15.461Z,110
2019-02-28T12:46:14.086Z,110
2019-02-28T12:47:12.607Z,110
2019-02-28T12:48:13.694Z,110
2019-02-28T12:49:10.098Z,110
2019-02-28T12:50:08.707Z,110
2019-02-28T12:51:07.324Z,110
2019-02-28T12:52:05.959Z,105
2019-02-28T12:53:04.515Z,105
2019-02-28T12:54:03.560Z,100
2019-02-28T12:55:03.960Z,100
2019-02-28T12:56:00.882Z,100
2019-02-28T12:56:59.431Z,100
2019-02-28T12:57:58.660Z,95
2019-02-28T12:58:56.708Z,95
2019-02-28T12:59:55.369Z,95
2019-02-28T13:00:56.282Z,95
2019-02-28T13:01:52.603Z,95
2019-02-28T13:02:51.346Z,95
2019-02-28T13:03:53.782Z,95
2019-02-28T13:04:48.566Z,95
2019-02-28T13:05:49.206Z,95
2019-02-28T13:06:46.259Z,95
2019-02-28T13:07:45.509Z,100
2019-02-28T13:08:44.530Z,100
2019-02-28T13:09:43.099Z,100
2019-02-28T13:10:42.307Z,100
2019-02-28T13:11:41.905Z,100
2019-02-28T13:12:44.023Z,100
2019-02-28T13:13:39.721Z,100
2019-02-28T13:14:40.562Z,100
2019-02-28T13:15:37.257Z,100
2019-02-28T13:16:35.974Z,95
2019-02-28T13:17:34.861Z,95
2019-02-28T13:18:34.172Z,95
2019-02-28T13:19:32.902Z,95
2019-02-28T13:20:33.462Z,95
2019-02-28T13:21:31.600Z,95
2019-02-28T13:22:30.197Z,95
2019-02-28T13:23:32.751Z,95
2019-02-28T13:24:27.417Z,95
2019-02-28T13:25:26.018Z,95
2019-02-28T13:26:24.585Z,95
2019-02-28T13:27:23.200Z,95
2019-02-28T13:28:23.644Z,95
2019-02-28T13:29:22.276Z,95
2019-02-28T13:30:20.557Z,95
2019-02-28T13:31:19.311Z,95
2019-02-28T13:32:17.939Z,95
2019-02-28T13:33:16.603Z,95
2019-02-28T13:34:15.420Z,95
2019-02-28T13:35:14.130Z,95
2019-02-28T13:36:12.991Z,95
2019-02-28T13:37:11.510Z,95
2019-02-28T13:38:10.191Z,95
2019-02-28T13:39:09.952Z,95
2019-02-28T13:40:09.445Z,95
2019-02-28T13:41:07.105Z,95
2019-02-28T13:42:06.202Z,95
2019-02-28T13:43:05.624Z,95
2019-02-28T13:44:04.216Z,95
2019-02-28T13:45:02.789Z,95
2019-02-28T13:46:01.837Z,95
2019-02-28T13:47:00.427Z,95
2019-02-28T13:47:59.008Z,95
2019-02-28T13:48:57.663Z,90
2019-02-28T13:49:56.297Z,90
2019-02-28T13:50:59.261Z,90
2019-02-28T13:53:44.763Z,95
2019-02-28T13:54:43.599Z,95
2019-02-28T13:59:31.809Z,90
2019-02-28T14:00:30.098Z,90
2019-02-28T14:01:28.688Z,90
2019-02-28T14:02:29.689Z,90
2019-02-28T14:03:26.063Z,90
2019-02-28T14:04:26.954Z,90
2019-02-28T14:12:36.021Z,90
2019-02-28T14:13:34.959Z,90
2019-02-28T14:16:15.387Z,90
2019-02-28T14:17:14.812Z,90
2019-02-28T14:18:13.695Z,90
2019-02-28T14:19:12.441Z,90
2019-02-28T14:20:13.314Z,90
2019-02-28T14:22:34.473Z,90
2019-02-28T14:23:33.111Z,90
2019-02-28T14:24:31.971Z,90
2019-02-28T14:28:13.478Z,90
2019-02-28T14:29:12.197Z,90
2019-02-28T14:30:10.725Z,90
2019-02-28T14:31:09.302Z,90
2019-02-28T14:32:08.235Z,90
2019-02-28T14:33:06.636Z,85
2019-02-28T14:34:05.262Z,85
2019-02-28T14:35:04.156Z,85
2019-02-28T14:36:02.826Z,85
2019-02-28T14:37:01.505Z,85
2019-02-28T14:38:00.226Z,85
2019-02-28T14:38:59.147Z,85
2019-02-28T14:41:48.432Z,85
2019-02-28T14:42:47.288Z,85
2019-02-28T14:43:46.182Z,85
2019-02-28T14:44:45.026Z,85
2019-02-28T14:45:44.105Z,85
2019-02-28T14:46:42.542Z,85
2019-02-28T14:47:41.210Z,85
2019-02-28T14:48:40.757Z,85
2019-02-28T14:49:38.506Z,85
2019-02-28T14:50:37.311Z,85
2019-02-28T14:51:35.882Z,85
2019-02-28T14:52:35.728Z,85
2019-02-28T14:53:33.679Z,85
2019-02-28T14:54:32.265Z,85
2019-02-28T14:55:32.525Z,80
2019-02-28T14:56:30.405Z,80
2019-02-28T14:57:28.567Z,80
2019-02-28T14:58:27.358Z,80
2019-02-28T14:59:28.528Z,80
2019-02-28T15:00:24.574Z,80
2019-02-28T15:01:23.369Z,80
2019-02-28T15:02:21.933Z,80
2019-02-28T15:03:20.517Z,80
2019-02-28T15:06:19.008Z,80
2019-02-28T15:07:17.769Z,80
2019-02-28T15:08:17.407Z,80
2019-02-28T15:09:16.143Z,80
2019-02-28T15:10:14.713Z,80
2019-02-28T15:11:13.458Z,75
2019-02-28T15:12:12.063Z,75
2019-02-28T15:13:10.758Z,75
2019-02-28T15:14:09.832Z,75
2019-02-28T15:15:08.313Z,75
2019-02-28T15:16:07.017Z,75
2019-02-28T15:17:07.500Z,75
2019-02-28T15:18:05.292Z,75
2019-02-28T15:19:05.788Z,75
2019-02-28T15:20:03.131Z,75
2019-02-28T15:21:04.432Z,75
2019-02-28T15:22:00.339Z,75
2019-02-28T15:22:59.577Z,75
2019-02-28T15:23:57.907Z,70
2019-02-28T15:24:56.511Z,70
2019-02-28T15:25:55.259Z,70
2019-02-28T15:26:53.941Z,70
2019-02-28T15:27:58.764Z,70
2019-02-28T15:28:57.406Z,70
2019-02-28T15:29:58.793Z,70
2019-02-28T15:30:55.084Z,70
2019-02-28T15:31:53.699Z,70
2019-02-28T15:32:54.175Z,70
2019-02-28T15:33:52.732Z,70
2019-02-28T15:34:49.851Z,70
2019-02-28T15:35:49.674Z,70
2019-02-28T15:36:47.347Z,70
2019-02-28T15:37:46.103Z,70
2019-02-28T15:38:45.363Z,70
2019-02-28T15:39:43.385Z,70
2019-02-28T15:40:42.037Z,70
2019-02-28T15:41:40.633Z,65
2019-02-28T15:42:39.594Z,65
2019-02-28T15:43:38.167Z,65
2019-02-28T15:44:37.727Z,65
2019-02-28T15:45:37.271Z,65
2019-02-28T15:46:36.045Z,65
2019-02-28T15:47:34.553Z,65
2019-02-28T15:48:34.535Z,65
2019-02-28T15:49:32.068Z,60
2019-02-28T15:50:30.648Z,60
2019-02-28T15:51:30.299Z,60
2019-02-28T15:52:27.822Z,60
2019-02-28T15:53:26.387Z,60
2019-02-28T15:54:25.160Z,60
2019-02-28T15:55:23.598Z,60
2019-02-28T15:56:22.210Z,55
2019-02-28T15:57:20.787Z,55
2019-02-28T15:58:19.339Z,55
2019-02-28T15:59:18.005Z,55
2019-02-28T16:00:16.705Z,55
2019-02-28T16:01:15.521Z,55
2019-02-28T16:02:14.098Z,55
2019-02-28T16:03:13.416Z,55
2019-02-28T16:04:11.346Z,55
2019-02-28T16:05:10.090Z,55
2019-02-28T16:06:08.849Z,50
2019-02-28T16:07:07.457Z,50
2019-02-28T16:08:10.258Z,50
2019-02-28T16:09:04.636Z,50